sensor_id;sensor_type;location;lat;lon;timestamp;P1;durP1;ratioP1;P2;durP2;ratioP2
75450;SDS011;64029;48.244;9.188;2023-02-20T00:02:13;3.90;;;2.23;;
75450;SDS011;64029;48.244;9.188;2023-02-20T00:04:40;3.17;;;2.47;;
75450;SDS011;64029;48.244;9.188;2023-02-20T00:07:07;2.90;;;2.63;;
75450;SDS011;64029;48.244;9.188;2023-02-20T00:09:35;4.53;;;2.57;;
75450;SDS011;64029;48.244;9.188;2023-02-20T00:12:02;3.93;;;2.63;;
75450;SDS011;64029;48.244;9.188;2023-02-20T00:14:29;3.57;;;2.30;;
75450;SDS011;64029;48.244;9.188;2023-02-20T00:16:56;3.50;;;2.60;;
75450;SDS011;64029;48.244;9.188;2023-02-20T00:19:23;3.50;;;2.70;;
75450;SDS011;64029;48.244;9.188;2023-02-20T00:21:49;4.37;;;2.63;;
75450;SDS011;64029;48.244;9.188;2023-02-20T00:24:17;4.33;;;2.47;;
75450;SDS011;64029;48.244;9.188;2023-02-20T00:26:46;3.17;;;2.50;;
75450;SDS011;64029;48.244;9.188;2023-02-20T00:29:14;4.13;;;2.50;;
75450;SDS011;64029;48.244;9.188;2023-02-20T00:31:42;3.77;;;2.57;;
75450;SDS011;64029;48.244;9.188;2023-02-20T00:34:08;6.40;;;2.60;;
75450;SDS011;64029;48.244;9.188;2023-02-20T00:36:35;4.30;;;2.80;;
75450;SDS011;64029;48.244;9.188;2023-02-20T00:39:02;4.60;;;2.47;;
75450;SDS011;64029;48.244;9.188;2023-02-20T00:41:29;3.70;;;2.70;;
75450;SDS011;64029;48.244;9.188;2023-02-20T00:43:57;5.03;;;2.57;;
75450;SDS011;64029;48.244;9.188;2023-02-20T00:46:24;9.60;;;2.80;;
75450;SDS011;64029;48.244;9.188;2023-02-20T00:48:51;4.73;;;2.80;;
75450;SDS011;64029;48.244;9.188;2023-02-20T00:51:17;6.43;;;3.17;;
75450;SDS011;64029;48.244;9.188;2023-02-20T00:53:44;3.23;;;2.93;;
75450;SDS011;64029;48.244;9.188;2023-02-20T00:56:11;4.10;;;2.40;;
75450;SDS011;64029;48.244;9.188;2023-02-20T00:58:38;4.80;;;2.80;;
75450;SDS011;64029;48.244;9.188;2023-02-20T01:01:08;5.93;;;2.93;;
75450;SDS011;64029;48.244;9.188;2023-02-20T01:03:35;5.87;;;3.20;;
75450;SDS011;64029;48.244;9.188;2023-02-20T01:06:01;3.73;;;2.50;;
75450;SDS011;64029;48.244;9.188;2023-02-20T01:08:28;5.10;;;2.97;;
75450;SDS011;64029;48.244;9.188;2023-02-20T01:10:55;5.20;;;2.53;;
75450;SDS011;64029;48.244;9.188;2023-02-20T01:13:22;3.83;;;2.47;;
75450;SDS011;64029;48.244;9.188;2023-02-20T01:15:49;4.67;;;2.73;;
75450;SDS011;64029;48.244;9.188;2023-02-20T01:18:17;5.93;;;2.90;;
75450;SDS011;64029;48.244;9.188;2023-02-20T01:20:45;3.83;;;2.60;;
75450;SDS011;64029;48.244;9.188;2023-02-20T01:23:11;3.90;;;2.77;;
75450;SDS011;64029;48.244;9.188;2023-02-20T01:25:38;4.10;;;2.97;;
75450;SDS011;64029;48.244;9.188;2023-02-20T01:28:05;3.77;;;3.07;;
75450;SDS011;64029;48.244;9.188;2023-02-20T01:30:32;4.30;;;2.27;;
75450;SDS011;64029;48.244;9.188;2023-02-20T01:32:59;3.83;;;2.97;;
75450;SDS011;64029;48.244;9.188;2023-02-20T01:35:27;3.23;;;2.93;;
75450;SDS011;64029;48.244;9.188;2023-02-20T01:37:55;4.33;;;2.80;;
75450;SDS011;64029;48.244;9.188;2023-02-20T01:40:23;5.07;;;3.00;;
75450;SDS011;64029;48.244;9.188;2023-02-20T01:42:51;3.43;;;2.60;;
75450;SDS011;64029;48.244;9.188;2023-02-20T01:45:26;6.90;;;3.57;;
75450;SDS011;64029;48.244;9.188;2023-02-20T01:47:58;3.80;;;3.00;;
75450;SDS011;64029;48.244;9.188;2023-02-20T01:50:27;5.07;;;3.03;;
75450;SDS011;64029;48.244;9.188;2023-02-20T01:52:58;6.37;;;2.40;;
75450;SDS011;64029;48.244;9.188;2023-02-20T01:55:28;10.87;;;2.87;;
75450;SDS011;64029;48.244;9.188;2023-02-20T01:57:59;3.40;;;2.90;;
75450;SDS011;64029;48.244;9.188;2023-02-20T02:00:29;5.20;;;2.87;;
75450;SDS011;64029;48.244;9.188;2023-02-20T02:02:58;7.33;;;4.00;;
75450;SDS011;64029;48.244;9.188;2023-02-20T02:05:29;8.77;;;3.57;;
75450;SDS011;64029;48.244;9.188;2023-02-20T02:07:58;4.90;;;2.90;;
75450;SDS011;64029;48.244;9.188;2023-02-20T02:10:27;4.10;;;3.70;;
75450;SDS011;64029;48.244;9.188;2023-02-20T02:13:01;8.40;;;3.83;;
75450;SDS011;64029;48.244;9.188;2023-02-20T02:15:29;6.90;;;4.10;;
75450;SDS011;64029;48.244;9.188;2023-02-20T02:17:59;5.63;;;3.67;;
75450;SDS011;64029;48.244;9.188;2023-02-20T02:24:19;2.87;;;2.40;;
75450;SDS011;64029;48.244;9.188;2023-02-20T02:27:07;5.87;;;3.17;;
75450;SDS011;64029;48.244;9.188;2023-02-20T02:30:06;3.43;;;2.70;;
75450;SDS011;64029;48.244;9.188;2023-02-20T02:33:02;5.90;;;3.20;;
75450;SDS011;64029;48.244;9.188;2023-02-20T02:36:02;5.67;;;2.70;;
75450;SDS011;64029;48.244;9.188;2023-02-20T02:38:55;4.03;;;3.33;;
75450;SDS011;64029;48.244;9.188;2023-02-20T02:41:30;4.20;;;2.93;;
75450;SDS011;64029;48.244;9.188;2023-02-20T02:44:05;6.30;;;3.00;;
75450;SDS011;64029;48.244;9.188;2023-02-20T02:46:37;4.43;;;3.07;;
75450;SDS011;64029;48.244;9.188;2023-02-20T02:49:10;5.53;;;3.37;;
75450;SDS011;64029;48.244;9.188;2023-02-20T02:51:43;5.73;;;3.03;;
75450;SDS011;64029;48.244;9.188;2023-02-20T02:54:13;6.10;;;2.83;;
75450;SDS011;64029;48.244;9.188;2023-02-20T02:56:41;5.93;;;3.20;;
75450;SDS011;64029;48.244;9.188;2023-02-20T02:59:11;5.00;;;3.03;;
75450;SDS011;64029;48.244;9.188;2023-02-20T03:01:43;5.07;;;3.30;;
75450;SDS011;64029;48.244;9.188;2023-02-20T03:04:15;6.63;;;3.53;;
75450;SDS011;64029;48.244;9.188;2023-02-20T03:06:48;3.37;;;3.07;;
75450;SDS011;64029;48.244;9.188;2023-02-20T03:09:18;8.50;;;3.40;;
75450;SDS011;64029;48.244;9.188;2023-02-20T03:11:49;5.33;;;3.40;;
75450;SDS011;64029;48.244;9.188;2023-02-20T03:14:18;6.07;;;3.43;;
75450;SDS011;64029;48.244;9.188;2023-02-20T03:17:07;4.80;;;3.63;;
75450;SDS011;64029;48.244;9.188;2023-02-20T03:19:40;5.07;;;3.63;;
75450;SDS011;64029;48.244;9.188;2023-02-20T03:22:11;5.27;;;3.40;;
75450;SDS011;64029;48.244;9.188;2023-02-20T03:24:41;7.47;;;3.87;;
75450;SDS011;64029;48.244;9.188;2023-02-20T03:27:22;3.70;;;3.13;;
75450;SDS011;64029;48.244;9.188;2023-02-20T03:29:53;7.03;;;3.23;;
75450;SDS011;64029;48.244;9.188;2023-02-20T03:32:23;8.10;;;3.80;;
75450;SDS011;64029;48.244;9.188;2023-02-20T03:35:10;4.33;;;3.63;;
75450;SDS011;64029;48.244;9.188;2023-02-20T03:37:57;6.00;;;3.60;;
75450;SDS011;64029;48.244;9.188;2023-02-20T03:40:45;4.20;;;3.03;;
75450;SDS011;64029;48.244;9.188;2023-02-20T03:43:30;5.77;;;3.37;;
75450;SDS011;64029;48.244;9.188;2023-02-20T03:46:00;6.83;;;3.20;;
75450;SDS011;64029;48.244;9.188;2023-02-20T03:48:32;4.30;;;2.90;;
75450;SDS011;64029;48.244;9.188;2023-02-20T03:51:03;4.27;;;2.50;;
75450;SDS011;64029;48.244;9.188;2023-02-20T03:53:49;7.97;;;3.30;;
75450;SDS011;64029;48.244;9.188;2023-02-20T03:56:17;3.27;;;2.63;;
75450;SDS011;64029;48.244;9.188;2023-02-20T03:58:49;4.17;;;2.67;;
75450;SDS011;64029;48.244;9.188;2023-02-20T04:01:21;5.03;;;2.33;;
75450;SDS011;64029;48.244;9.188;2023-02-20T04:03:51;5.90;;;2.83;;
75450;SDS011;64029;48.244;9.188;2023-02-20T04:06:21;5.30;;;2.70;;
75450;SDS011;64029;48.244;9.188;2023-02-20T04:08:54;3.67;;;2.43;;
75450;SDS011;64029;48.244;9.188;2023-02-20T04:11:27;3.10;;;2.50;;
75450;SDS011;64029;48.244;9.188;2023-02-20T04:13:57;2.90;;;2.70;;
75450;SDS011;64029;48.244;9.188;2023-02-20T04:16:26;2.30;;;2.10;;
75450;SDS011;64029;48.244;9.188;2023-02-20T04:18:53;4.00;;;2.50;;
75450;SDS011;64029;48.244;9.188;2023-02-20T04:21:21;3.77;;;2.80;;
75450;SDS011;64029;48.244;9.188;2023-02-20T04:23:58;3.83;;;2.20;;
75450;SDS011;64029;48.244;9.188;2023-02-20T04:26:29;6.13;;;2.90;;
75450;SDS011;64029;48.244;9.188;2023-02-20T04:28:56;4.77;;;3.30;;
75450;SDS011;64029;48.244;9.188;2023-02-20T04:31:23;3.87;;;2.80;;
75450;SDS011;64029;48.244;9.188;2023-02-20T04:33:51;4.87;;;3.53;;
75450;SDS011;64029;48.244;9.188;2023-02-20T04:36:18;3.97;;;3.20;;
75450;SDS011;64029;48.244;9.188;2023-02-20T04:38:45;11.93;;;3.27;;
75450;SDS011;64029;48.244;9.188;2023-02-20T04:41:13;4.30;;;2.60;;
75450;SDS011;64029;48.244;9.188;2023-02-20T04:43:40;4.63;;;2.80;;
75450;SDS011;64029;48.244;9.188;2023-02-20T04:46:07;4.70;;;2.90;;
75450;SDS011;64029;48.244;9.188;2023-02-20T04:48:34;2.83;;;2.60;;
75450;SDS011;64029;48.244;9.188;2023-02-20T04:51:01;3.93;;;2.50;;
75450;SDS011;64029;48.244;9.188;2023-02-20T04:53:27;5.63;;;3.10;;
75450;SDS011;64029;48.244;9.188;2023-02-20T04:55:54;3.80;;;2.80;;
75450;SDS011;64029;48.244;9.188;2023-02-20T04:58:22;5.83;;;2.90;;
75450;SDS011;64029;48.244;9.188;2023-02-20T05:00:49;5.80;;;3.43;;
75450;SDS011;64029;48.244;9.188;2023-02-20T05:03:16;4.57;;;2.90;;
75450;SDS011;64029;48.244;9.188;2023-02-20T05:05:43;6.37;;;3.60;;
75450;SDS011;64029;48.244;9.188;2023-02-20T05:08:09;9.30;;;3.43;;
75450;SDS011;64029;48.244;9.188;2023-02-20T05:10:36;5.00;;;3.30;;
75450;SDS011;64029;48.244;9.188;2023-02-20T05:13:03;4.13;;;3.27;;
75450;SDS011;64029;48.244;9.188;2023-02-20T05:15:31;6.73;;;3.60;;
75450;SDS011;64029;48.244;9.188;2023-02-20T05:17:58;4.57;;;3.10;;
75450;SDS011;64029;48.244;9.188;2023-02-20T05:20:25;7.47;;;4.03;;
75450;SDS011;64029;48.244;9.188;2023-02-20T05:23:06;7.73;;;3.17;;
75450;SDS011;64029;48.244;9.188;2023-02-20T05:25:33;3.40;;;2.87;;
75450;SDS011;64029;48.244;9.188;2023-02-20T05:27:59;4.20;;;3.20;;
75450;SDS011;64029;48.244;9.188;2023-02-20T05:30:26;3.43;;;3.13;;
75450;SDS011;64029;48.244;9.188;2023-02-20T05:32:54;5.90;;;3.30;;
75450;SDS011;64029;48.244;9.188;2023-02-20T05:35:21;6.30;;;3.10;;
75450;SDS011;64029;48.244;9.188;2023-02-20T05:37:48;4.83;;;3.40;;
75450;SDS011;64029;48.244;9.188;2023-02-20T05:40:15;3.60;;;3.17;;
75450;SDS011;64029;48.244;9.188;2023-02-20T05:42:42;8.97;;;4.00;;
75450;SDS011;64029;48.244;9.188;2023-02-20T05:45:09;3.80;;;3.40;;
75450;SDS011;64029;48.244;9.188;2023-02-20T05:47:36;5.20;;;3.17;;
75450;SDS011;64029;48.244;9.188;2023-02-20T05:50:04;5.20;;;3.63;;
75450;SDS011;64029;48.244;9.188;2023-02-20T05:52:32;6.40;;;3.57;;
75450;SDS011;64029;48.244;9.188;2023-02-20T05:54:58;3.70;;;3.30;;
75450;SDS011;64029;48.244;9.188;2023-02-20T05:57:25;4.43;;;3.37;;
75450;SDS011;64029;48.244;9.188;2023-02-20T05:59:52;3.77;;;3.13;;
75450;SDS011;64029;48.244;9.188;2023-02-20T06:02:19;5.10;;;3.40;;
75450;SDS011;64029;48.244;9.188;2023-02-20T06:04:46;4.20;;;3.37;;
75450;SDS011;64029;48.244;9.188;2023-02-20T06:07:14;5.13;;;3.70;;
75450;SDS011;64029;48.244;9.188;2023-02-20T06:09:41;4.97;;;4.00;;
75450;SDS011;64029;48.244;9.188;2023-02-20T06:12:08;5.90;;;3.70;;
75450;SDS011;64029;48.244;9.188;2023-02-20T06:14:35;10.10;;;5.20;;
75450;SDS011;64029;48.244;9.188;2023-02-20T06:17:02;4.20;;;3.40;;
75450;SDS011;64029;48.244;9.188;2023-02-20T06:19:29;10.33;;;4.40;;
75450;SDS011;64029;48.244;9.188;2023-02-20T06:21:56;10.33;;;3.13;;
75450;SDS011;64029;48.244;9.188;2023-02-20T06:24:25;10.43;;;3.90;;
75450;SDS011;64029;48.244;9.188;2023-02-20T06:26:52;5.17;;;3.40;;
75450;SDS011;64029;48.244;9.188;2023-02-20T06:29:19;6.70;;;3.70;;
75450;SDS011;64029;48.244;9.188;2023-02-20T06:31:46;4.40;;;4.00;;
75450;SDS011;64029;48.244;9.188;2023-02-20T06:34:13;5.27;;;3.47;;
75450;SDS011;64029;48.244;9.188;2023-02-20T06:36:40;6.13;;;3.23;;
75450;SDS011;64029;48.244;9.188;2023-02-20T06:39:08;4.50;;;4.10;;
75450;SDS011;64029;48.244;9.188;2023-02-20T06:41:38;5.60;;;4.00;;
75450;SDS011;64029;48.244;9.188;2023-02-20T06:44:05;7.83;;;3.83;;
75450;SDS011;64029;48.244;9.188;2023-02-20T06:46:32;4.07;;;2.97;;
75450;SDS011;64029;48.244;9.188;2023-02-20T06:48:58;4.73;;;3.10;;
75450;SDS011;64029;48.244;9.188;2023-02-20T06:51:26;6.17;;;3.40;;
75450;SDS011;64029;48.244;9.188;2023-02-20T06:53:55;5.77;;;3.37;;
75450;SDS011;64029;48.244;9.188;2023-02-20T06:56:22;3.83;;;3.43;;
75450;SDS011;64029;48.244;9.188;2023-02-20T06:58:51;4.80;;;4.10;;
75450;SDS011;64029;48.244;9.188;2023-02-20T07:01:19;5.63;;;3.80;;
75450;SDS011;64029;48.244;9.188;2023-02-20T07:03:48;5.30;;;4.47;;
75450;SDS011;64029;48.244;9.188;2023-02-20T07:06:15;7.03;;;4.60;;
75450;SDS011;64029;48.244;9.188;2023-02-20T07:08:42;5.03;;;4.47;;
75450;SDS011;64029;48.244;9.188;2023-02-20T07:11:09;7.90;;;4.20;;
75450;SDS011;64029;48.244;9.188;2023-02-20T07:13:36;5.50;;;4.80;;
75450;SDS011;64029;48.244;9.188;2023-02-20T07:16:05;5.10;;;4.20;;
75450;SDS011;64029;48.244;9.188;2023-02-20T07:18:35;5.10;;;4.10;;
75450;SDS011;64029;48.244;9.188;2023-02-20T07:21:02;6.60;;;4.30;;
75450;SDS011;64029;48.244;9.188;2023-02-20T07:23:29;7.03;;;3.80;;
75450;SDS011;64029;48.244;9.188;2023-02-20T07:25:56;7.23;;;4.07;;
75450;SDS011;64029;48.244;9.188;2023-02-20T07:28:23;5.63;;;3.77;;
75450;SDS011;64029;48.244;9.188;2023-02-20T07:30:50;7.50;;;4.23;;
75450;SDS011;64029;48.244;9.188;2023-02-20T07:33:18;5.27;;;4.50;;
75450;SDS011;64029;48.244;9.188;2023-02-20T07:35:45;8.30;;;5.43;;
75450;SDS011;64029;48.244;9.188;2023-02-20T07:38:12;9.53;;;5.97;;
75450;SDS011;64029;48.244;9.188;2023-02-20T07:40:39;8.67;;;6.10;;
75450;SDS011;64029;48.244;9.188;2023-02-20T07:43:06;6.17;;;5.57;;
75450;SDS011;64029;48.244;9.188;2023-02-20T07:45:33;7.63;;;5.67;;
75450;SDS011;64029;48.244;9.188;2023-02-20T07:48:00;7.30;;;5.73;;
75450;SDS011;64029;48.244;9.188;2023-02-20T07:50:28;10.27;;;6.43;;
75450;SDS011;64029;48.244;9.188;2023-02-20T07:52:55;8.40;;;6.57;;
75450;SDS011;64029;48.244;9.188;2023-02-20T07:55:22;9.80;;;6.10;;
75450;SDS011;64029;48.244;9.188;2023-02-20T07:57:48;8.73;;;6.57;;
75450;SDS011;64029;48.244;9.188;2023-02-20T08:00:19;13.23;;;6.83;;
75450;SDS011;64029;48.244;9.188;2023-02-20T08:02:47;10.33;;;7.57;;
75450;SDS011;64029;48.244;9.188;2023-02-20T08:05:14;7.83;;;6.50;;
75450;SDS011;64029;48.244;9.188;2023-02-20T08:07:44;14.07;;;8.00;;
75450;SDS011;64029;48.244;9.188;2023-02-20T08:10:12;10.87;;;8.47;;
75450;SDS011;64029;48.244;9.188;2023-02-20T08:12:40;12.70;;;8.17;;
75450;SDS011;64029;48.244;9.188;2023-02-20T08:15:07;22.00;;;13.07;;
75450;SDS011;64029;48.244;9.188;2023-02-20T08:17:36;16.50;;;12.33;;
75450;SDS011;64029;48.244;9.188;2023-02-20T08:20:03;27.50;;;17.60;;
75450;SDS011;64029;48.244;9.188;2023-02-20T08:22:31;23.70;;;16.20;;
75450;SDS011;64029;48.244;9.188;2023-02-20T08:24:59;29.00;;;14.77;;
75450;SDS011;64029;48.244;9.188;2023-02-20T08:27:28;23.50;;;14.90;;
75450;SDS011;64029;48.244;9.188;2023-02-20T08:29:55;23.43;;;14.10;;
75450;SDS011;64029;48.244;9.188;2023-02-20T08:32:22;16.63;;;11.00;;
75450;SDS011;64029;48.244;9.188;2023-02-20T08:34:49;16.10;;;9.73;;
75450;SDS011;64029;48.244;9.188;2023-02-20T08:37:16;18.10;;;10.23;;
75450;SDS011;64029;48.244;9.188;2023-02-20T08:39:43;14.47;;;9.00;;
75450;SDS011;64029;48.244;9.188;2023-02-20T08:42:13;11.03;;;8.03;;
75450;SDS011;64029;48.244;9.188;2023-02-20T08:44:40;11.60;;;8.27;;
75450;SDS011;64029;48.244;9.188;2023-02-20T08:47:07;14.07;;;7.83;;
75450;SDS011;64029;48.244;9.188;2023-02-20T08:49:34;11.73;;;7.90;;
75450;SDS011;64029;48.244;9.188;2023-02-20T08:52:01;11.00;;;8.27;;
75450;SDS011;64029;48.244;9.188;2023-02-20T08:54:30;11.90;;;8.83;;
75450;SDS011;64029;48.244;9.188;2023-02-20T08:56:57;12.13;;;7.40;;
75450;SDS011;64029;48.244;9.188;2023-02-20T08:59:25;14.13;;;6.80;;
75450;SDS011;64029;48.244;9.188;2023-02-20T09:01:55;8.57;;;4.70;;
75450;SDS011;64029;48.244;9.188;2023-02-20T09:04:22;6.60;;;4.87;;
75450;SDS011;64029;48.244;9.188;2023-02-20T09:06:49;7.27;;;5.03;;
75450;SDS011;64029;48.244;9.188;2023-02-20T09:09:16;12.87;;;4.87;;
75450;SDS011;64029;48.244;9.188;2023-02-20T09:11:43;7.13;;;4.63;;
75450;SDS011;64029;48.244;9.188;2023-02-20T09:14:10;5.30;;;3.60;;
75450;SDS011;64029;48.244;9.188;2023-02-20T09:16:38;4.50;;;3.30;;
75450;SDS011;64029;48.244;9.188;2023-02-20T09:19:06;6.97;;;3.53;;
75450;SDS011;64029;48.244;9.188;2023-02-20T09:21:33;5.73;;;3.67;;
75450;SDS011;64029;48.244;9.188;2023-02-20T09:24:00;4.33;;;3.10;;
75450;SDS011;64029;48.244;9.188;2023-02-20T09:26:27;4.93;;;2.60;;
75450;SDS011;64029;48.244;9.188;2023-02-20T09:28:54;8.90;;;3.67;;
75450;SDS011;64029;48.244;9.188;2023-02-20T09:31:21;8.43;;;3.63;;
75450;SDS011;64029;48.244;9.188;2023-02-20T09:33:49;4.30;;;3.10;;
75450;SDS011;64029;48.244;9.188;2023-02-20T09:36:16;7.97;;;3.43;;
75450;SDS011;64029;48.244;9.188;2023-02-20T09:38:42;4.50;;;2.70;;
75450;SDS011;64029;48.244;9.188;2023-02-20T09:41:11;14.67;;;3.40;;
75450;SDS011;64029;48.244;9.188;2023-02-20T09:43:54;4.10;;;2.70;;
75450;SDS011;64029;48.244;9.188;2023-02-20T09:46:26;5.40;;;2.70;;
75450;SDS011;64029;48.244;9.188;2023-02-20T09:49:02;4.57;;;2.77;;
75450;SDS011;64029;48.244;9.188;2023-02-20T09:51:36;9.10;;;3.80;;
75450;SDS011;64029;48.244;9.188;2023-02-20T09:54:05;3.50;;;2.63;;
75450;SDS011;64029;48.244;9.188;2023-02-20T09:56:36;6.33;;;2.73;;
75450;SDS011;64029;48.244;9.188;2023-02-20T09:59:07;6.53;;;3.17;;
75450;SDS011;64029;48.244;9.188;2023-02-20T10:01:40;10.40;;;4.40;;
75450;SDS011;64029;48.244;9.188;2023-02-20T10:04:19;4.50;;;2.10;;
75450;SDS011;64029;48.244;9.188;2023-02-20T10:06:49;4.80;;;1.80;;
75450;SDS011;64029;48.244;9.188;2023-02-20T10:09:18;2.53;;;2.07;;
75450;SDS011;64029;48.244;9.188;2023-02-20T10:11:47;3.03;;;1.90;;
75450;SDS011;64029;48.244;9.188;2023-02-20T10:14:26;1.70;;;1.60;;
75450;SDS011;64029;48.244;9.188;2023-02-20T10:17:06;2.07;;;1.73;;
75450;SDS011;64029;48.244;9.188;2023-02-20T10:19:43;1.73;;;1.10;;
75450;SDS011;64029;48.244;9.188;2023-02-20T10:22:17;6.03;;;1.50;;
75450;SDS011;64029;48.244;9.188;2023-02-20T10:24:51;3.27;;;1.60;;
75450;SDS011;64029;48.244;9.188;2023-02-20T10:27:29;5.30;;;1.33;;
75450;SDS011;64029;48.244;9.188;2023-02-20T10:30:00;2.50;;;1.40;;
75450;SDS011;64029;48.244;9.188;2023-02-20T10:32:31;3.10;;;1.90;;
75450;SDS011;64029;48.244;9.188;2023-02-20T10:35:06;3.10;;;1.30;;
75450;SDS011;64029;48.244;9.188;2023-02-20T10:37:37;4.40;;;1.17;;
75450;SDS011;64029;48.244;9.188;2023-02-20T10:40:09;1.37;;;1.23;;
75450;SDS011;64029;48.244;9.188;2023-02-20T10:42:43;1.77;;;1.13;;
75450;SDS011;64029;48.244;9.188;2023-02-20T10:45:19;2.27;;;1.70;;
75450;SDS011;64029;48.244;9.188;2023-02-20T10:47:53;2.63;;;1.30;;
75450;SDS011;64029;48.244;9.188;2023-02-20T10:50:30;1.60;;;1.07;;
75450;SDS011;64029;48.244;9.188;2023-02-20T10:53:03;4.00;;;1.47;;
75450;SDS011;64029;48.244;9.188;2023-02-20T10:55:39;1.20;;;1.07;;
75450;SDS011;64029;48.244;9.188;2023-02-20T10:58:11;4.20;;;1.30;;
75450;SDS011;64029;48.244;9.188;2023-02-20T11:00:45;2.10;;;1.40;;
75450;SDS011;64029;48.244;9.188;2023-02-20T11:03:16;2.47;;;1.43;;
75450;SDS011;64029;48.244;9.188;2023-02-20T11:05:48;3.27;;;1.77;;
75450;SDS011;64029;48.244;9.188;2023-02-20T11:08:19;2.50;;;1.37;;
75450;SDS011;64029;48.244;9.188;2023-02-20T11:10:45;2.57;;;1.13;;
75450;SDS011;64029;48.244;9.188;2023-02-20T11:13:14;1.53;;;0.87;;
75450;SDS011;64029;48.244;9.188;2023-02-20T11:15:43;1.30;;;0.90;;
75450;SDS011;64029;48.244;9.188;2023-02-20T11:18:15;1.93;;;1.00;;
75450;SDS011;64029;48.244;9.188;2023-02-20T11:20:51;1.43;;;1.00;;
75450;SDS011;64029;48.244;9.188;2023-02-20T11:23:37;2.30;;;1.07;;
75450;SDS011;64029;48.244;9.188;2023-02-20T11:28:57;1.57;;;1.00;;
75450;SDS011;64029;48.244;9.188;2023-02-20T11:31:30;2.00;;;0.90;;
75450;SDS011;64029;48.244;9.188;2023-02-20T11:33:59;2.20;;;0.90;;
75450;SDS011;64029;48.244;9.188;2023-02-20T11:36:30;2.23;;;1.00;;
75450;SDS011;64029;48.244;9.188;2023-02-20T11:39:04;1.00;;;0.80;;
75450;SDS011;64029;48.244;9.188;2023-02-20T11:41:43;1.43;;;1.07;;
75450;SDS011;64029;48.244;9.188;2023-02-20T11:47:09;1.83;;;1.07;;
75450;SDS011;64029;48.244;9.188;2023-02-20T11:49:45;2.57;;;1.10;;
75450;SDS011;64029;48.244;9.188;2023-02-20T11:52:19;1.77;;;0.90;;
75450;SDS011;64029;48.244;9.188;2023-02-20T11:54:47;1.10;;;1.00;;
75450;SDS011;64029;48.244;9.188;2023-02-20T11:57:36;1.20;;;0.87;;
75450;SDS011;64029;48.244;9.188;2023-02-20T12:00:10;1.17;;;0.97;;
75450;SDS011;64029;48.244;9.188;2023-02-20T12:02:52;4.30;;;1.03;;
75450;SDS011;64029;48.244;9.188;2023-02-20T12:05:21;3.50;;;1.33;;
75450;SDS011;64029;48.244;9.188;2023-02-20T12:08:17;1.97;;;1.30;;
75450;SDS011;64029;48.244;9.188;2023-02-20T12:10:53;1.57;;;1.07;;
75450;SDS011;64029;48.244;9.188;2023-02-20T12:13:25;3.43;;;1.40;;
75450;SDS011;64029;48.244;9.188;2023-02-20T12:15:54;1.80;;;1.30;;
75450;SDS011;64029;48.244;9.188;2023-02-20T12:18:33;2.67;;;1.60;;
75450;SDS011;64029;48.244;9.188;2023-02-20T12:21:08;6.70;;;1.80;;
75450;SDS011;64029;48.244;9.188;2023-02-20T12:23:47;2.43;;;1.50;;
75450;SDS011;64029;48.244;9.188;2023-02-20T12:26:36;5.17;;;1.43;;
75450;SDS011;64029;48.244;9.188;2023-02-20T12:29:15;1.47;;;1.20;;
75450;SDS011;64029;48.244;9.188;2023-02-20T12:31:54;4.77;;;1.30;;
75450;SDS011;64029;48.244;9.188;2023-02-20T12:34:31;4.37;;;1.10;;
75450;SDS011;64029;48.244;9.188;2023-02-20T12:37:14;4.17;;;1.40;;
75450;SDS011;64029;48.244;9.188;2023-02-20T12:39:52;1.67;;;1.40;;
75450;SDS011;64029;48.244;9.188;2023-02-20T12:42:29;2.60;;;1.23;;
75450;SDS011;64029;48.244;9.188;2023-02-20T12:45:12;3.43;;;1.10;;
75450;SDS011;64029;48.244;9.188;2023-02-20T12:47:43;1.30;;;1.20;;
75450;SDS011;64029;48.244;9.188;2023-02-20T12:55:59;3.83;;;1.43;;
75450;SDS011;64029;48.244;9.188;2023-02-20T12:58:50;2.17;;;1.13;;
75450;SDS011;64029;48.244;9.188;2023-02-20T13:01:23;2.27;;;0.97;;
75450;SDS011;64029;48.244;9.188;2023-02-20T13:03:51;2.73;;;1.13;;
75450;SDS011;64029;48.244;9.188;2023-02-20T13:06:29;1.80;;;1.53;;
75450;SDS011;64029;48.244;9.188;2023-02-20T13:09:02;2.17;;;0.90;;
75450;SDS011;64029;48.244;9.188;2023-02-20T13:11:35;2.10;;;1.27;;
75450;SDS011;64029;48.244;9.188;2023-02-20T13:14:13;3.97;;;1.30;;
75450;SDS011;64029;48.244;9.188;2023-02-20T13:16:54;6.70;;;1.37;;
75450;SDS011;64029;48.244;9.188;2023-02-20T13:19:29;4.43;;;1.50;;
75450;SDS011;64029;48.244;9.188;2023-02-20T13:22:00;2.90;;;1.40;;
75450;SDS011;64029;48.244;9.188;2023-02-20T13:24:29;2.30;;;1.23;;
75450;SDS011;64029;48.244;9.188;2023-02-20T13:26:59;3.50;;;1.13;;
75450;SDS011;64029;48.244;9.188;2023-02-20T13:29:31;2.03;;;1.40;;
75450;SDS011;64029;48.244;9.188;2023-02-20T13:31:59;2.30;;;1.20;;
75450;SDS011;64029;48.244;9.188;2023-02-20T13:34:32;3.50;;;1.70;;
75450;SDS011;64029;48.244;9.188;2023-02-20T13:37:01;1.67;;;1.40;;
75450;SDS011;64029;48.244;9.188;2023-02-20T13:39:37;3.20;;;1.37;;
75450;SDS011;64029;48.244;9.188;2023-02-20T13:42:26;3.07;;;1.30;;
75450;SDS011;64029;48.244;9.188;2023-02-20T13:44:58;4.60;;;1.63;;
75450;SDS011;64029;48.244;9.188;2023-02-20T13:47:29;2.60;;;1.13;;
75450;SDS011;64029;48.244;9.188;2023-02-20T13:50:00;3.07;;;1.23;;
75450;SDS011;64029;48.244;9.188;2023-02-20T13:52:31;2.10;;;1.57;;
75450;SDS011;64029;48.244;9.188;2023-02-20T13:55:10;2.63;;;1.30;;
75450;SDS011;64029;48.244;9.188;2023-02-20T13:57:44;2.33;;;1.10;;
75450;SDS011;64029;48.244;9.188;2023-02-20T14:00:19;2.97;;;1.37;;
75450;SDS011;64029;48.244;9.188;2023-02-20T14:02:50;4.80;;;1.10;;
75450;SDS011;64029;48.244;9.188;2023-02-20T14:05:18;1.50;;;1.40;;
75450;SDS011;64029;48.244;9.188;2023-02-20T14:07:46;1.93;;;1.30;;
75450;SDS011;64029;48.244;9.188;2023-02-20T14:10:14;2.60;;;1.30;;
75450;SDS011;64029;48.244;9.188;2023-02-20T14:12:44;2.50;;;1.30;;
75450;SDS011;64029;48.244;9.188;2023-02-20T14:15:18;1.50;;;1.33;;
75450;SDS011;64029;48.244;9.188;2023-02-20T14:17:45;4.63;;;1.20;;
75450;SDS011;64029;48.244;9.188;2023-02-20T14:20:16;1.03;;;0.93;;
75450;SDS011;64029;48.244;9.188;2023-02-20T14:22:46;1.43;;;1.20;;
75450;SDS011;64029;48.244;9.188;2023-02-20T14:25:18;1.23;;;1.13;;
75450;SDS011;64029;48.244;9.188;2023-02-20T14:27:48;2.03;;;1.00;;
75450;SDS011;64029;48.244;9.188;2023-02-20T14:30:17;2.40;;;1.20;;
75450;SDS011;64029;48.244;9.188;2023-02-20T14:32:46;4.07;;;1.27;;
75450;SDS011;64029;48.244;9.188;2023-02-20T14:35:24;1.30;;;1.07;;
75450;SDS011;64029;48.244;9.188;2023-02-20T14:38:06;1.73;;;1.00;;
75450;SDS011;64029;48.244;9.188;2023-02-20T14:40:41;1.10;;;1.00;;
75450;SDS011;64029;48.244;9.188;2023-02-20T14:43:11;1.43;;;1.17;;
75450;SDS011;64029;48.244;9.188;2023-02-20T14:45:42;1.00;;;0.90;;
75450;SDS011;64029;48.244;9.188;2023-02-20T14:48:20;3.30;;;1.20;;
75450;SDS011;64029;48.244;9.188;2023-02-20T14:50:48;3.53;;;1.20;;
75450;SDS011;64029;48.244;9.188;2023-02-20T14:53:36;4.43;;;1.50;;
75450;SDS011;64029;48.244;9.188;2023-02-20T14:56:09;2.07;;;1.33;;
75450;SDS011;64029;48.244;9.188;2023-02-20T14:58:38;1.43;;;1.20;;
75450;SDS011;64029;48.244;9.188;2023-02-20T15:01:15;3.63;;;1.47;;
75450;SDS011;64029;48.244;9.188;2023-02-20T15:03:44;1.93;;;1.20;;
75450;SDS011;64029;48.244;9.188;2023-02-20T15:06:23;2.70;;;1.23;;
75450;SDS011;64029;48.244;9.188;2023-02-20T15:08:54;2.93;;;1.23;;
75450;SDS011;64029;48.244;9.188;2023-02-20T15:11:22;2.20;;;1.30;;
75450;SDS011;64029;48.244;9.188;2023-02-20T15:13:51;1.70;;;0.97;;
75450;SDS011;64029;48.244;9.188;2023-02-20T15:16:19;2.40;;;1.83;;
75450;SDS011;64029;48.244;9.188;2023-02-20T15:18:48;3.73;;;1.33;;
75450;SDS011;64029;48.244;9.188;2023-02-20T15:21:29;4.30;;;1.57;;
75450;SDS011;64029;48.244;9.188;2023-02-20T15:24:10;4.30;;;2.13;;